E38

Alpine-Casparis Municipal Airport

Alpine, Texas, USA
METAR KE38 110155Z AUTO 32003KT 10SM CLR 05/03 A3038 RMK AO2 T00480031
Observed Flight Rules
Dec-11 @ 01:55 UTC (33 minutes ago) Visual Flight Rules
Wind Visibility Clouds
320° at 3 knots 10 miles
  • Clear skies
Temperatures Readings
Current 5°C / 41°F
Dewpoint 3°C / 37°F
Humidity 87%
Altimeter 30.38" Hg
Pressure 1029 hPa
Elevation 1376
METAR KE38 110155Z AUTO 32003KT 10SM CLR 05/03 A3038 RMK AO2 T00480031
Observed Flight Rules
Dec-11 @ 01:55 UTC
(33 minutes ago)
VFR
Wind Visibility
320° at 3 knots 10 miles
Clouds
  • Clear skies
Temperature Dewpoint
5°C / 41°F 3°C / 37°F
Humidity Altimeter Pressure
87% 30.38" Hg 1029 hPa